sensor_id;sensor_type;location;lat;lon;timestamp;temperature;humidity
18141;DHT22;9196;49.194;12.526;2024-02-23T00:02:12;9.70;99.90
18141;DHT22;9196;49.194;12.526;2024-02-23T00:04:39;9.70;99.90
18141;DHT22;9196;49.194;12.526;2024-02-23T00:07:07;9.70;99.90
18141;DHT22;9196;49.194;12.526;2024-02-23T00:09:35;9.60;99.90
18141;DHT22;9196;49.194;12.526;2024-02-23T00:12:02;9.70;99.90
18141;DHT22;9196;49.194;12.526;2024-02-23T00:14:29;9.60;99.90
18141;DHT22;9196;49.194;12.526;2024-02-23T00:16:57;9.60;99.90
18141;DHT22;9196;49.194;12.526;2024-02-23T00:19:23;9.60;99.90
18141;DHT22;9196;49.194;12.526;2024-02-23T00:21:50;9.60;99.90
18141;DHT22;9196;49.194;12.526;2024-02-23T00:24:18;9.50;99.90
18141;DHT22;9196;49.194;12.526;2024-02-23T00:26:48;9.50;99.90
18141;DHT22;9196;49.194;12.526;2024-02-23T00:29:14;9.50;99.90
18141;DHT22;9196;49.194;12.526;2024-02-23T00:31:41;9.50;99.90
18141;DHT22;9196;49.194;12.526;2024-02-23T00:34:08;9.50;99.90
18141;DHT22;9196;49.194;12.526;2024-02-23T00:36:36;9.50;99.90
18141;DHT22;9196;49.194;12.526;2024-02-23T00:39:03;9.50;99.90
18141;DHT22;9196;49.194;12.526;2024-02-23T00:41:30;9.40;99.90
18141;DHT22;9196;49.194;12.526;2024-02-23T00:43:58;9.40;99.90
18141;DHT22;9196;49.194;12.526;2024-02-23T00:46:25;9.30;99.90
18141;DHT22;9196;49.194;12.526;2024-02-23T00:48:52;9.20;99.90
18141;DHT22;9196;49.194;12.526;2024-02-23T00:51:18;9.30;99.90
18141;DHT22;9196;49.194;12.526;2024-02-23T00:53:45;9.20;99.90
18141;DHT22;9196;49.194;12.526;2024-02-23T00:56:12;9.20;99.90
18141;DHT22;9196;49.194;12.526;2024-02-23T00:58:39;9.20;99.90
18141;DHT22;9196;49.194;12.526;2024-02-23T01:01:07;9.20;99.90
18141;DHT22;9196;49.194;12.526;2024-02-23T01:03:34;9.20;99.90
18141;DHT22;9196;49.194;12.526;2024-02-23T01:06:01;9.10;99.90
18141;DHT22;9196;49.194;12.526;2024-02-23T01:08:28;9.10;99.90
18141;DHT22;9196;49.194;12.526;2024-02-23T01:10:55;9.10;99.90
18141;DHT22;9196;49.194;12.526;2024-02-23T01:13:22;9.10;99.90
18141;DHT22;9196;49.194;12.526;2024-02-23T01:15:49;9.20;99.90
18141;DHT22;9196;49.194;12.526;2024-02-23T01:18:17;9.20;99.90
18141;DHT22;9196;49.194;12.526;2024-02-23T01:20:44;9.10;99.90
18141;DHT22;9196;49.194;12.526;2024-02-23T01:23:11;9.10;99.90
18141;DHT22;9196;49.194;12.526;2024-02-23T01:25:38;9.10;99.90
18141;DHT22;9196;49.194;12.526;2024-02-23T01:28:05;9.10;99.90
18141;DHT22;9196;49.194;12.526;2024-02-23T01:30:31;9.10;99.90
18141;DHT22;9196;49.194;12.526;2024-02-23T01:32:58;9.10;99.90
18141;DHT22;9196;49.194;12.526;2024-02-23T01:35:27;9.00;99.90
18141;DHT22;9196;49.194;12.526;2024-02-23T01:37:55;9.00;99.90
18141;DHT22;9196;49.194;12.526;2024-02-23T01:40:22;9.10;99.90
18141;DHT22;9196;49.194;12.526;2024-02-23T01:42:50;9.00;99.90
18141;DHT22;9196;49.194;12.526;2024-02-23T01:45:26;9.00;99.90
18141;DHT22;9196;49.194;12.526;2024-02-23T01:47:53;9.00;99.90
18141;DHT22;9196;49.194;12.526;2024-02-23T01:50:20;9.00;99.90
18141;DHT22;9196;49.194;12.526;2024-02-23T01:52:48;8.90;99.90
18141;DHT22;9196;49.194;12.526;2024-02-23T01:55:17;8.80;99.90
18141;DHT22;9196;49.194;12.526;2024-02-23T01:57:45;8.40;99.90
18141;DHT22;9196;49.194;12.526;2024-02-23T02:00:16;8.20;99.90
18141;DHT22;9196;49.194;12.526;2024-02-23T02:02:43;8.10;99.90
18141;DHT22;9196;49.194;12.526;2024-02-23T02:05:10;8.00;99.90
18141;DHT22;9196;49.194;12.526;2024-02-23T02:07:37;7.90;99.90
18141;DHT22;9196;49.194;12.526;2024-02-23T02:10:08;7.80;99.90
18141;DHT22;9196;49.194;12.526;2024-02-23T02:12:35;7.80;99.90
18141;DHT22;9196;49.194;12.526;2024-02-23T02:15:02;7.70;99.90
18141;DHT22;9196;49.194;12.526;2024-02-23T02:17:30;7.60;99.90
18141;DHT22;9196;49.194;12.526;2024-02-23T02:19:58;7.60;99.90
18141;DHT22;9196;49.194;12.526;2024-02-23T02:22:25;7.50;99.90
18141;DHT22;9196;49.194;12.526;2024-02-23T02:24:52;7.50;99.90
18141;DHT22;9196;49.194;12.526;2024-02-23T02:27:20;7.50;99.90
18141;DHT22;9196;49.194;12.526;2024-02-23T02:29:50;7.50;99.90
18141;DHT22;9196;49.194;12.526;2024-02-23T02:32:17;7.40;99.90
18141;DHT22;9196;49.194;12.526;2024-02-23T02:34:43;7.40;99.90
18141;DHT22;9196;49.194;12.526;2024-02-23T02:37:10;7.30;99.90
18141;DHT22;9196;49.194;12.526;2024-02-23T02:39:37;7.20;99.90
18141;DHT22;9196;49.194;12.526;2024-02-23T02:42:04;7.10;99.90
18141;DHT22;9196;49.194;12.526;2024-02-23T02:44:32;7.10;99.90
18141;DHT22;9196;49.194;12.526;2024-02-23T02:46:59;7.00;99.90
18141;DHT22;9196;49.194;12.526;2024-02-23T02:49:26;7.00;99.90
18141;DHT22;9196;49.194;12.526;2024-02-23T02:51:52;7.00;99.90
18141;DHT22;9196;49.194;12.526;2024-02-23T02:54:19;6.90;99.90
18141;DHT22;9196;49.194;12.526;2024-02-23T02:56:47;6.90;99.90
18141;DHT22;9196;49.194;12.526;2024-02-23T02:59:16;6.80;99.90
18141;DHT22;9196;49.194;12.526;2024-02-23T03:01:45;6.80;99.90
18141;DHT22;9196;49.194;12.526;2024-02-23T03:04:12;6.80;99.90
18141;DHT22;9196;49.194;12.526;2024-02-23T03:06:39;6.80;99.90
18141;DHT22;9196;49.194;12.526;2024-02-23T03:09:06;6.80;99.90
18141;DHT22;9196;49.194;12.526;2024-02-23T03:11:33;6.70;99.90
18141;DHT22;9196;49.194;12.526;2024-02-23T03:14:00;6.70;99.90
18141;DHT22;9196;49.194;12.526;2024-02-23T03:16:27;6.70;99.90
18141;DHT22;9196;49.194;12.526;2024-02-23T03:18:57;6.70;99.90
18141;DHT22;9196;49.194;12.526;2024-02-23T03:21:24;6.60;99.90
18141;DHT22;9196;49.194;12.526;2024-02-23T03:23:50;6.70;99.90
18141;DHT22;9196;49.194;12.526;2024-02-23T03:26:17;6.70;99.90
18141;DHT22;9196;49.194;12.526;2024-02-23T03:28:44;6.60;99.90
18141;DHT22;9196;49.194;12.526;2024-02-23T03:31:11;6.60;99.90
18141;DHT22;9196;49.194;12.526;2024-02-23T03:33:38;6.50;99.90
18141;DHT22;9196;49.194;12.526;2024-02-23T03:36:07;6.50;99.90
18141;DHT22;9196;49.194;12.526;2024-02-23T03:38:33;6.40;99.90
18141;DHT22;9196;49.194;12.526;2024-02-23T03:41:00;6.40;99.90
18141;DHT22;9196;49.194;12.526;2024-02-23T03:43:27;6.40;99.90
18141;DHT22;9196;49.194;12.526;2024-02-23T03:45:54;6.40;99.90
18141;DHT22;9196;49.194;12.526;2024-02-23T03:48:21;6.40;99.90
18141;DHT22;9196;49.194;12.526;2024-02-23T03:50:47;6.50;99.90
18141;DHT22;9196;49.194;12.526;2024-02-23T03:53:15;6.50;99.90
18141;DHT22;9196;49.194;12.526;2024-02-23T03:55:42;6.40;99.90
18141;DHT22;9196;49.194;12.526;2024-02-23T03:58:09;6.40;99.90
18141;DHT22;9196;49.194;12.526;2024-02-23T04:00:36;6.40;99.90
18141;DHT22;9196;49.194;12.526;2024-02-23T04:03:03;6.40;99.90
18141;DHT22;9196;49.194;12.526;2024-02-23T04:05:30;6.30;99.90
18141;DHT22;9196;49.194;12.526;2024-02-23T04:07:57;6.30;99.90
18141;DHT22;9196;49.194;12.526;2024-02-23T04:10:25;6.30;99.90
18141;DHT22;9196;49.194;12.526;2024-02-23T04:12:52;6.40;99.90
18141;DHT22;9196;49.194;12.526;2024-02-23T04:15:19;6.30;99.90
18141;DHT22;9196;49.194;12.526;2024-02-23T04:17:46;6.40;99.90
18141;DHT22;9196;49.194;12.526;2024-02-23T04:20:13;6.30;99.90
18141;DHT22;9196;49.194;12.526;2024-02-23T04:22:40;6.30;99.90
18141;DHT22;9196;49.194;12.526;2024-02-23T04:25:07;6.20;99.90
18141;DHT22;9196;49.194;12.526;2024-02-23T04:27:36;6.20;99.90
18141;DHT22;9196;49.194;12.526;2024-02-23T04:30:03;6.20;99.90
18141;DHT22;9196;49.194;12.526;2024-02-23T04:32:30;6.20;99.90
18141;DHT22;9196;49.194;12.526;2024-02-23T04:34:56;6.20;99.90
18141;DHT22;9196;49.194;12.526;2024-02-23T04:37:23;6.10;99.90
18141;DHT22;9196;49.194;12.526;2024-02-23T04:39:50;6.20;99.90
18141;DHT22;9196;49.194;12.526;2024-02-23T04:42:17;6.20;99.90
18141;DHT22;9196;49.194;12.526;2024-02-23T04:44:45;6.10;99.90
18141;DHT22;9196;49.194;12.526;2024-02-23T04:47:14;6.10;99.90
18141;DHT22;9196;49.194;12.526;2024-02-23T04:49:41;6.10;99.90
18141;DHT22;9196;49.194;12.526;2024-02-23T04:52:08;6.10;99.90
18141;DHT22;9196;49.194;12.526;2024-02-23T04:54:35;6.10;99.90
18141;DHT22;9196;49.194;12.526;2024-02-23T04:57:02;6.10;99.90
18141;DHT22;9196;49.194;12.526;2024-02-23T04:59:29;6.00;99.90
18141;DHT22;9196;49.194;12.526;2024-02-23T05:01:59;6.00;99.90
18141;DHT22;9196;49.194;12.526;2024-02-23T05:04:26;6.00;99.90
18141;DHT22;9196;49.194;12.526;2024-02-23T05:06:53;6.00;99.90
18141;DHT22;9196;49.194;12.526;2024-02-23T05:09:20;6.00;99.90
18141;DHT22;9196;49.194;12.526;2024-02-23T05:11:47;6.00;99.90
18141;DHT22;9196;49.194;12.526;2024-02-23T05:14:14;6.00;99.90
18141;DHT22;9196;49.194;12.526;2024-02-23T05:16:41;6.00;99.90
18141;DHT22;9196;49.194;12.526;2024-02-23T05:19:08;6.00;99.90
18141;DHT22;9196;49.194;12.526;2024-02-23T05:21:35;6.00;99.90
18141;DHT22;9196;49.194;12.526;2024-02-23T05:24:01;6.00;99.90
18141;DHT22;9196;49.194;12.526;2024-02-23T05:26:28;6.00;99.90
18141;DHT22;9196;49.194;12.526;2024-02-23T05:28:55;5.90;99.90
18141;DHT22;9196;49.194;12.526;2024-02-23T05:31:43;5.90;99.90
18141;DHT22;9196;49.194;12.526;2024-02-23T05:34:12;5.90;99.90
18141;DHT22;9196;49.194;12.526;2024-02-23T05:36:38;5.90;99.90
18141;DHT22;9196;49.194;12.526;2024-02-23T05:39:05;6.00;99.90
18141;DHT22;9196;49.194;12.526;2024-02-23T05:41:33;5.90;99.90
18141;DHT22;9196;49.194;12.526;2024-02-23T05:43:59;5.90;99.90
18141;DHT22;9196;49.194;12.526;2024-02-23T05:46:29;5.90;99.90
18141;DHT22;9196;49.194;12.526;2024-02-23T05:48:57;5.80;99.90
18141;DHT22;9196;49.194;12.526;2024-02-23T05:51:25;5.70;99.90
18141;DHT22;9196;49.194;12.526;2024-02-23T05:53:54;5.70;99.90
18141;DHT22;9196;49.194;12.526;2024-02-23T05:56:21;5.80;99.90
18141;DHT22;9196;49.194;12.526;2024-02-23T05:58:49;5.80;99.90
18141;DHT22;9196;49.194;12.526;2024-02-23T06:01:16;5.70;99.90
18141;DHT22;9196;49.194;12.526;2024-02-23T06:03:43;5.70;99.90
18141;DHT22;9196;49.194;12.526;2024-02-23T06:06:10;5.80;99.90
18141;DHT22;9196;49.194;12.526;2024-02-23T06:08:38;5.80;99.90
18141;DHT22;9196;49.194;12.526;2024-02-23T06:11:05;5.80;99.90
18141;DHT22;9196;49.194;12.526;2024-02-23T06:13:32;5.90;99.90
18141;DHT22;9196;49.194;12.526;2024-02-23T06:15:59;6.00;99.90
18141;DHT22;9196;49.194;12.526;2024-02-23T06:18:26;5.90;99.90
18141;DHT22;9196;49.194;12.526;2024-02-23T06:20:53;5.90;99.90
18141;DHT22;9196;49.194;12.526;2024-02-23T06:23:19;6.00;99.90
18141;DHT22;9196;49.194;12.526;2024-02-23T06:25:48;6.10;99.90
18141;DHT22;9196;49.194;12.526;2024-02-23T06:28:15;6.20;99.90
18141;DHT22;9196;49.194;12.526;2024-02-23T06:30:42;6.30;99.90
18141;DHT22;9196;49.194;12.526;2024-02-23T06:33:09;6.30;99.90
18141;DHT22;9196;49.194;12.526;2024-02-23T06:35:36;6.30;99.90
18141;DHT22;9196;49.194;12.526;2024-02-23T06:38:03;6.20;99.90
18141;DHT22;9196;49.194;12.526;2024-02-23T06:40:31;6.20;99.90
18141;DHT22;9196;49.194;12.526;2024-02-23T06:42:59;6.20;99.90
18141;DHT22;9196;49.194;12.526;2024-02-23T06:45:26;6.10;99.90
18141;DHT22;9196;49.194;12.526;2024-02-23T06:47:53;6.10;99.90
18141;DHT22;9196;49.194;12.526;2024-02-23T06:50:20;6.00;99.90
18141;DHT22;9196;49.194;12.526;2024-02-23T06:52:48;6.10;99.90
18141;DHT22;9196;49.194;12.526;2024-02-23T06:55:15;6.20;99.90
18141;DHT22;9196;49.194;12.526;2024-02-23T06:57:43;6.20;99.90
18141;DHT22;9196;49.194;12.526;2024-02-23T07:00:12;6.20;99.90
18141;DHT22;9196;49.194;12.526;2024-02-23T07:02:39;6.10;99.90
18141;DHT22;9196;49.194;12.526;2024-02-23T07:05:06;6.10;99.90
18141;DHT22;9196;49.194;12.526;2024-02-23T07:07:34;6.00;99.90
18141;DHT22;9196;49.194;12.526;2024-02-23T07:10:01;6.00;99.90
18141;DHT22;9196;49.194;12.526;2024-02-23T07:12:28;6.00;99.90
18141;DHT22;9196;49.194;12.526;2024-02-23T07:14:55;6.00;99.90
18141;DHT22;9196;49.194;12.526;2024-02-23T07:17:23;6.00;99.90
18141;DHT22;9196;49.194;12.526;2024-02-23T07:19:50;5.90;99.90
18141;DHT22;9196;49.194;12.526;2024-02-23T07:22:18;6.00;99.90
18141;DHT22;9196;49.194;12.526;2024-02-23T07:24:46;6.00;99.90
18141;DHT22;9196;49.194;12.526;2024-02-23T07:27:13;6.00;99.90
18141;DHT22;9196;49.194;12.526;2024-02-23T07:29:40;5.90;99.90
18141;DHT22;9196;49.194;12.526;2024-02-23T07:32:06;5.90;99.90
18141;DHT22;9196;49.194;12.526;2024-02-23T07:34:35;5.90;99.90
18141;DHT22;9196;49.194;12.526;2024-02-23T07:37:01;6.00;99.90
18141;DHT22;9196;49.194;12.526;2024-02-23T07:39:29;6.00;99.90
18141;DHT22;9196;49.194;12.526;2024-02-23T07:41:56;6.00;99.90
18141;DHT22;9196;49.194;12.526;2024-02-23T07:44:23;6.00;99.90
18141;DHT22;9196;49.194;12.526;2024-02-23T07:46:50;6.10;99.90
18141;DHT22;9196;49.194;12.526;2024-02-23T07:49:17;6.10;99.90
18141;DHT22;9196;49.194;12.526;2024-02-23T07:51:46;6.20;99.90
18141;DHT22;9196;49.194;12.526;2024-02-23T07:54:13;6.10;99.90
18141;DHT22;9196;49.194;12.526;2024-02-23T07:56:40;6.10;99.90
18141;DHT22;9196;49.194;12.526;2024-02-23T07:59:06;6.00;99.90
18141;DHT22;9196;49.194;12.526;2024-02-23T08:01:33;6.00;99.90
18141;DHT22;9196;49.194;12.526;2024-02-23T08:04:00;6.00;99.90
18141;DHT22;9196;49.194;12.526;2024-02-23T08:06:28;6.00;99.90
18141;DHT22;9196;49.194;12.526;2024-02-23T08:08:56;6.00;99.90
18141;DHT22;9196;49.194;12.526;2024-02-23T08:11:23;5.90;99.90
18141;DHT22;9196;49.194;12.526;2024-02-23T08:13:50;6.00;99.90
18141;DHT22;9196;49.194;12.526;2024-02-23T08:16:17;5.90;99.90
18141;DHT22;9196;49.194;12.526;2024-02-23T08:18:44;5.80;99.90
18141;DHT22;9196;49.194;12.526;2024-02-23T08:21:11;5.80;99.90
18141;DHT22;9196;49.194;12.526;2024-02-23T08:23:38;5.90;99.90
18141;DHT22;9196;49.194;12.526;2024-02-23T08:26:06;5.90;99.90
18141;DHT22;9196;49.194;12.526;2024-02-23T08:28:35;5.90;99.90
18141;DHT22;9196;49.194;12.526;2024-02-23T08:31:02;5.90;99.90
18141;DHT22;9196;49.194;12.526;2024-02-23T08:33:29;5.90;99.90
18141;DHT22;9196;49.194;12.526;2024-02-23T08:35:56;5.90;99.90
18141;DHT22;9196;49.194;12.526;2024-02-23T08:38:22;5.90;99.90
18141;DHT22;9196;49.194;12.526;2024-02-23T08:40:49;5.90;99.90
18141;DHT22;9196;49.194;12.526;2024-02-23T08:43:17;6.00;99.90
18141;DHT22;9196;49.194;12.526;2024-02-23T08:45:45;6.00;99.90
18141;DHT22;9196;49.194;12.526;2024-02-23T08:48:12;6.00;99.90
18141;DHT22;9196;49.194;12.526;2024-02-23T08:50:40;6.10;99.90
18141;DHT22;9196;49.194;12.526;2024-02-23T08:53:07;6.10;99.90
18141;DHT22;9196;49.194;12.526;2024-02-23T08:55:34;6.20;99.90
18141;DHT22;9196;49.194;12.526;2024-02-23T08:58:01;6.20;99.90
18141;DHT22;9196;49.194;12.526;2024-02-23T09:00:29;6.30;99.90
18141;DHT22;9196;49.194;12.526;2024-02-23T09:02:56;6.30;99.90
18141;DHT22;9196;49.194;12.526;2024-02-23T09:05:22;6.30;99.90
18141;DHT22;9196;49.194;12.526;2024-02-23T09:07:49;6.30;99.90
18141;DHT22;9196;49.194;12.526;2024-02-23T09:10:17;6.30;99.90
18141;DHT22;9196;49.194;12.526;2024-02-23T09:12:44;6.40;99.90
18141;DHT22;9196;49.194;12.526;2024-02-23T09:15:11;6.50;99.90
18141;DHT22;9196;49.194;12.526;2024-02-23T09:17:40;6.60;99.90
18141;DHT22;9196;49.194;12.526;2024-02-23T09:20:07;6.60;99.90
18141;DHT22;9196;49.194;12.526;2024-02-23T09:22:34;6.60;99.90
18141;DHT22;9196;49.194;12.526;2024-02-23T09:25:02;6.60;99.90
18141;DHT22;9196;49.194;12.526;2024-02-23T09:27:30;6.60;99.90
18141;DHT22;9196;49.194;12.526;2024-02-23T09:29:57;6.60;99.90
18141;DHT22;9196;49.194;12.526;2024-02-23T09:32:24;6.60;99.90
18141;DHT22;9196;49.194;12.526;2024-02-23T09:34:52;6.50;99.90
18141;DHT22;9196;49.194;12.526;2024-02-23T09:37:19;6.50;99.90
18141;DHT22;9196;49.194;12.526;2024-02-23T09:39:46;6.50;99.90
18141;DHT22;9196;49.194;12.526;2024-02-23T09:42:13;6.40;99.90
18141;DHT22;9196;49.194;12.526;2024-02-23T09:44:41;6.40;99.90
18141;DHT22;9196;49.194;12.526;2024-02-23T09:47:12;6.30;99.90
18141;DHT22;9196;49.194;12.526;2024-02-23T09:49:40;6.30;99.90
18141;DHT22;9196;49.194;12.526;2024-02-23T09:52:09;6.30;99.90
18141;DHT22;9196;49.194;12.526;2024-02-23T09:54:37;6.30;99.90
18141;DHT22;9196;49.194;12.526;2024-02-23T09:57:07;6.40;99.90
18141;DHT22;9196;49.194;12.526;2024-02-23T09:59:34;6.40;99.90
18141;DHT22;9196;49.194;12.526;2024-02-23T10:02:01;6.40;99.90
18141;DHT22;9196;49.194;12.526;2024-02-23T10:04:30;6.40;99.90
18141;DHT22;9196;49.194;12.526;2024-02-23T10:06:57;6.50;99.90
18141;DHT22;9196;49.194;12.526;2024-02-23T10:09:25;6.40;99.90
18141;DHT22;9196;49.194;12.526;2024-02-23T10:11:52;6.50;99.90
18141;DHT22;9196;49.194;12.526;2024-02-23T10:14:20;6.40;99.90
18141;DHT22;9196;49.194;12.526;2024-02-23T10:16:47;6.40;99.90
18141;DHT22;9196;49.194;12.526;2024-02-23T10:19:14;6.40;99.90
18141;DHT22;9196;49.194;12.526;2024-02-23T10:21:40;6.40;99.90
18141;DHT22;9196;49.194;12.526;2024-02-23T10:24:07;6.40;99.90
18141;DHT22;9196;49.194;12.526;2024-02-23T10:26:35;6.40;99.90
18141;DHT22;9196;49.194;12.526;2024-02-23T10:29:02;6.40;99.90
18141;DHT22;9196;49.194;12.526;2024-02-23T10:31:32;6.40;99.90
18141;DHT22;9196;49.194;12.526;2024-02-23T10:34:07;6.40;99.90
18141;DHT22;9196;49.194;12.526;2024-02-23T10:36:36;6.30;99.90
18141;DHT22;9196;49.194;12.526;2024-02-23T10:39:06;6.30;99.90
18141;DHT22;9196;49.194;12.526;2024-02-23T10:41:36;6.40;99.90
18141;DHT22;9196;49.194;12.526;2024-02-23T10:44:04;6.40;99.90
18141;DHT22;9196;49.194;12.526;2024-02-23T10:46:32;6.30;99.90
18141;DHT22;9196;49.194;12.526;2024-02-23T10:48:59;6.30;99.90
18141;DHT22;9196;49.194;12.526;2024-02-23T10:51:28;6.40;99.90
18141;DHT22;9196;49.194;12.526;2024-02-23T10:53:55;6.40;99.90
18141;DHT22;9196;49.194;12.526;2024-02-23T10:56:23;6.40;99.90
18141;DHT22;9196;49.194;12.526;2024-02-23T10:58:52;6.50;99.90
18141;DHT22;9196;49.194;12.526;2024-02-23T11:01:20;6.50;99.90
18141;DHT22;9196;49.194;12.526;2024-02-23T11:03:48;6.50;99.90
18141;DHT22;9196;49.194;12.526;2024-02-23T11:06:16;6.50;99.90
18141;DHT22;9196;49.194;12.526;2024-02-23T11:08:46;6.60;99.90
18141;DHT22;9196;49.194;12.526;2024-02-23T11:11:16;6.60;99.90
18141;DHT22;9196;49.194;12.526;2024-02-23T11:13:45;6.70;99.90
18141;DHT22;9196;49.194;12.526;2024-02-23T11:16:22;6.80;99.90
18141;DHT22;9196;49.194;12.526;2024-02-23T11:18:49;6.80;99.90
18141;DHT22;9196;49.194;12.526;2024-02-23T11:21:16;6.80;99.90
18141;DHT22;9196;49.194;12.526;2024-02-23T11:23:44;6.70;99.90
18141;DHT22;9196;49.194;12.526;2024-02-23T11:26:12;6.70;99.90
18141;DHT22;9196;49.194;12.526;2024-02-23T11:28:43;6.70;99.90
18141;DHT22;9196;49.194;12.526;2024-02-23T11:31:15;6.80;99.90
18141;DHT22;9196;49.194;12.526;2024-02-23T11:33:49;6.90;99.90
18141;DHT22;9196;49.194;12.526;2024-02-23T11:36:23;6.90;99.90
18141;DHT22;9196;49.194;12.526;2024-02-23T11:38:52;6.90;99.90
18141;DHT22;9196;49.194;12.526;2024-02-23T11:41:21;7.00;99.90
18141;DHT22;9196;49.194;12.526;2024-02-23T11:43:49;6.80;99.90
18141;DHT22;9196;49.194;12.526;2024-02-23T11:46:17;6.80;99.90
18141;DHT22;9196;49.194;12.526;2024-02-23T11:48:44;6.70;99.90
18141;DHT22;9196;49.194;12.526;2024-02-23T11:51:13;6.90;99.90
18141;DHT22;9196;49.194;12.526;2024-02-23T11:53:40;7.00;99.90
18141;DHT22;9196;49.194;12.526;2024-02-23T11:56:07;7.00;99.90
18141;DHT22;9196;49.194;12.526;2024-02-23T11:58:34;7.00;99.90
18141;DHT22;9196;49.194;12.526;2024-02-23T12:01:01;6.90;99.90
18141;DHT22;9196;49.194;12.526;2024-02-23T12:03:29;7.00;99.90
18141;DHT22;9196;49.194;12.526;2024-02-23T12:05:57;7.00;99.90
18141;DHT22;9196;49.194;12.526;2024-02-23T12:08:24;7.00;99.90
18141;DHT22;9196;49.194;12.526;2024-02-23T12:10:53;7.00;99.90
18141;DHT22;9196;49.194;12.526;2024-02-23T12:13:20;7.00;99.90
18141;DHT22;9196;49.194;12.526;2024-02-23T12:15:47;7.10;99.90
18141;DHT22;9196;49.194;12.526;2024-02-23T12:18:14;7.10;99.90
18141;DHT22;9196;49.194;12.526;2024-02-23T12:20:42;7.00;99.90
18141;DHT22;9196;49.194;12.526;2024-02-23T12:23:11;7.00;99.90
18141;DHT22;9196;49.194;12.526;2024-02-23T12:25:38;7.00;99.90
18141;DHT22;9196;49.194;12.526;2024-02-23T12:28:05;7.10;99.90
18141;DHT22;9196;49.194;12.526;2024-02-23T12:30:32;7.10;99.90
18141;DHT22;9196;49.194;12.526;2024-02-23T12:33:06;7.10;99.90
18141;DHT22;9196;49.194;12.526;2024-02-23T12:35:34;7.00;99.90
18141;DHT22;9196;49.194;12.526;2024-02-23T12:38:03;6.90;99.90
18141;DHT22;9196;49.194;12.526;2024-02-23T12:40:30;6.90;99.90
18141;DHT22;9196;49.194;12.526;2024-02-23T12:42:56;7.00;99.90
18141;DHT22;9196;49.194;12.526;2024-02-23T12:45:23;7.00;99.90
18141;DHT22;9196;49.194;12.526;2024-02-23T12:47:50;7.00;99.90
18141;DHT22;9196;49.194;12.526;2024-02-23T12:50:17;7.00;99.90
18141;DHT22;9196;49.194;12.526;2024-02-23T12:52:44;7.10;99.90
18141;DHT22;9196;49.194;12.526;2024-02-23T12:55:13;7.20;99.90
18141;DHT22;9196;49.194;12.526;2024-02-23T12:57:40;7.30;99.90
18141;DHT22;9196;49.194;12.526;2024-02-23T13:00:08;7.30;99.90
18141;DHT22;9196;49.194;12.526;2024-02-23T13:02:35;7.10;99.90
18141;DHT22;9196;49.194;12.526;2024-02-23T13:05:02;7.00;99.90
18141;DHT22;9196;49.194;12.526;2024-02-23T13:07:28;7.00;99.90
18141;DHT22;9196;49.194;12.526;2024-02-23T13:09:55;6.90;99.90
18141;DHT22;9196;49.194;12.526;2024-02-23T13:12:23;7.00;99.90
18141;DHT22;9196;49.194;12.526;2024-02-23T13:14:51;7.00;99.90
18141;DHT22;9196;49.194;12.526;2024-02-23T13:17:18;7.00;99.90
18141;DHT22;9196;49.194;12.526;2024-02-23T13:19:44;7.10;99.90
18141;DHT22;9196;49.194;12.526;2024-02-23T13:22:11;7.20;99.90
18141;DHT22;9196;49.194;12.526;2024-02-23T13:24:38;7.30;99.90
18141;DHT22;9196;49.194;12.526;2024-02-23T13:27:06;7.40;99.90
18141;DHT22;9196;49.194;12.526;2024-02-23T13:29:34;7.40;99.90
18141;DHT22;9196;49.194;12.526;2024-02-23T13:32:01;7.40;99.90
18141;DHT22;9196;49.194;12.526;2024-02-23T13:34:27;7.40;99.90
18141;DHT22;9196;49.194;12.526;2024-02-23T13:36:54;7.40;99.90
18141;DHT22;9196;49.194;12.526;2024-02-23T13:39:21;7.40;99.90
18141;DHT22;9196;49.194;12.526;2024-02-23T13:41:48;7.20;99.90
18141;DHT22;9196;49.194;12.526;2024-02-23T13:44:15;7.10;99.90
18141;DHT22;9196;49.194;12.526;2024-02-23T13:46:43;7.10;99.90
18141;DHT22;9196;49.194;12.526;2024-02-23T13:49:10;7.00;99.90
18141;DHT22;9196;49.194;12.526;2024-02-23T13:51:38;7.00;99.90
18141;DHT22;9196;49.194;12.526;2024-02-23T13:54:05;7.00;99.90
18141;DHT22;9196;49.194;12.526;2024-02-23T13:56:32;7.10;99.90
18141;DHT22;9196;49.194;12.526;2024-02-23T13:58:59;7.10;99.90
18141;DHT22;9196;49.194;12.526;2024-02-23T14:01:25;7.10;99.90
18141;DHT22;9196;49.194;12.526;2024-02-23T14:03:54;7.10;99.90
18141;DHT22;9196;49.194;12.526;2024-02-23T14:06:21;7.20;99.90
18141;DHT22;9196;49.194;12.526;2024-02-23T14:08:48;7.10;99.90
18141;DHT22;9196;49.194;12.526;2024-02-23T14:11:15;7.00;99.90
18141;DHT22;9196;49.194;12.526;2024-02-23T14:13:42;7.00;99.90
18141;DHT22;9196;49.194;12.526;2024-02-23T14:16:10;6.90;99.90
18141;DHT22;9196;49.194;12.526;2024-02-23T14:18:36;7.00;99.90
18141;DHT22;9196;49.194;12.526;2024-02-23T14:21:06;7.00;99.90
18141;DHT22;9196;49.194;12.526;2024-02-23T14:23:33;7.10;99.90
18141;DHT22;9196;49.194;12.526;2024-02-23T14:26:00;7.20;99.90
18141;DHT22;9196;49.194;12.526;2024-02-23T14:28:27;7.20;99.90
18141;DHT22;9196;49.194;12.526;2024-02-23T14:30:54;7.10;99.90
18141;DHT22;9196;49.194;12.526;2024-02-23T14:33:21;7.10;99.90
18141;DHT22;9196;49.194;12.526;2024-02-23T14:35:48;7.20;99.90
18141;DHT22;9196;49.194;12.526;2024-02-23T14:38:17;7.20;99.90
18141;DHT22;9196;49.194;12.526;2024-02-23T14:40:44;7.40;99.90
18141;DHT22;9196;49.194;12.526;2024-02-23T14:43:11;7.40;99.90
18141;DHT22;9196;49.194;12.526;2024-02-23T14:45:37;7.50;99.90
18141;DHT22;9196;49.194;12.526;2024-02-23T14:48:05;7.50;99.90
18141;DHT22;9196;49.194;12.526;2024-02-23T14:50:32;7.50;99.90
18141;DHT22;9196;49.194;12.526;2024-02-23T14:52:59;7.60;99.90
18141;DHT22;9196;49.194;12.526;2024-02-23T14:55:27;7.60;99.90
18141;DHT22;9196;49.194;12.526;2024-02-23T14:57:54;7.60;99.90
18141;DHT22;9196;49.194;12.526;2024-02-23T15:00:21;7.60;99.90
18141;DHT22;9196;49.194;12.526;2024-02-23T15:02:48;7.60;99.90
18141;DHT22;9196;49.194;12.526;2024-02-23T15:05:15;7.50;99.90
18141;DHT22;9196;49.194;12.526;2024-02-23T15:07:43;7.50;99.90
18141;DHT22;9196;49.194;12.526;2024-02-23T15:10:09;7.40;99.90
18141;DHT22;9196;49.194;12.526;2024-02-23T15:12:38;7.20;99.90
18141;DHT22;9196;49.194;12.526;2024-02-23T15:15:05;7.10;99.90
18141;DHT22;9196;49.194;12.526;2024-02-23T15:17:32;7.00;99.90
18141;DHT22;9196;49.194;12.526;2024-02-23T15:19:59;6.90;99.90
18141;DHT22;9196;49.194;12.526;2024-02-23T15:22:27;6.90;99.90
18141;DHT22;9196;49.194;12.526;2024-02-23T15:24:54;6.80;99.90
18141;DHT22;9196;49.194;12.526;2024-02-23T15:27:24;6.80;99.90
18141;DHT22;9196;49.194;12.526;2024-02-23T15:29:52;6.70;99.90
18141;DHT22;9196;49.194;12.526;2024-02-23T15:32:19;6.70;99.90
18141;DHT22;9196;49.194;12.526;2024-02-23T15:34:45;6.60;99.90
18141;DHT22;9196;49.194;12.526;2024-02-23T15:37:12;6.50;99.90
18141;DHT22;9196;49.194;12.526;2024-02-23T15:39:39;6.40;99.90
18141;DHT22;9196;49.194;12.526;2024-02-23T15:42:06;6.50;99.90
18141;DHT22;9196;49.194;12.526;2024-02-23T15:44:33;6.40;99.90
18141;DHT22;9196;49.194;12.526;2024-02-23T15:47:01;6.40;99.90